McFarland, CA

7:02 PM PST on March 04, 2015 (GMT -0800)
North Hills | Change Station
CLOSE
Current Station
Personal Weather Station
Location: Bakersfield, CA
Elevation: 722 ft
Nearby Weather Stations

Elev 722 ft 35.45 °N, 119.02 °W | Updated 1 second ago

Clear
Clear
59.2 °F
Feels Like 59.2 °F
N
0.0
Wind Variable Wind from West
Gusts 1.6 mph

Today
High -- | Low -- °F
--% Chance of Precip.
Yesterday
High -- | Low -- °F
Precip. -- in
6:23 AM 5:54 PM
Full, 100% visible
Pressure 30.13 in
Visibility 10.0 miles
Clouds Clear
Dew Point 44 °F
Humidity 57%
Rainfall 0.00 in
Snow Depth Not available.
UV 0 out of 12
Pollen 8.70 out of 12
Air Quality Not available.
Flu Activity Not available.
METAR KBFL 050154Z AUTO 05003KT 10SM CLR 18/05 A3013 RMK AO2 SLP202 T01780050 TSNO

More Conditions Fewer Conditions

Pressure 30.13 in
Visibility 10.0 miles
Clouds Clear
Dew Point 44 °F
Humidity 57%
Rainfall 0.00 in
Snow Depth Not available.
UV 0 out of 12
Pollen 8.70 out of 12
Air Quality Not available.
Flu Activity Not available.
METAR KBFL 050154Z AUTO 05003KT 10SM CLR 18/05 A3013 RMK AO2 SLP202 T01780050 TSNO

More Conditions Fewer Conditions

10-Day Weather Forecast

Almanac

Astronomy

Mar. 04, 2015 Rise Set
Actual Time
Civil Twilight
Nautical Twilight
Astronomical Twilight
Moon
Length of Visible Light
Length of Day
Tomorrow will be .
, % of the Moon is Illuminated

Today's Extremes

State Highs State Lows

Community

WunderPhotos

Upload Photos

1,802,641 photos uploaded!

WunderBlogs® & News

Nearby

Air Quality

  Air Quality AQ Index Pollutant
Not available.

Snow Depth

Station Depth Elevation

Earthquake Activity

City Distance Mag. Time & Date
Minimum magnitude displayed is 2.5.

Coastal Water Temperatures

Place Temperature

Nearby Weather Stations